createdAt,value
2023-03-12T00:02:22.167Z,11.54
2023-03-12T00:04:51.947Z,11.56
2023-03-12T00:07:21.452Z,11.51
2023-03-12T00:09:51.040Z,11.47
2023-03-12T00:12:20.324Z,11.50
2023-03-12T00:14:49.485Z,11.51
2023-03-12T00:17:18.770Z,11.36
2023-03-12T00:19:53.316Z,11.22
2023-03-12T00:22:23.736Z,11.14
2023-03-12T00:24:54.485Z,11.09
2023-03-12T00:27:24.724Z,11.02
2023-03-12T00:29:54.454Z,10.95
2023-03-12T00:32:24.652Z,10.93
2023-03-12T00:34:56.854Z,10.96
2023-03-12T00:37:26.403Z,10.97
2023-03-12T00:39:55.947Z,10.97
2023-03-12T00:42:25.005Z,10.93
2023-03-12T00:44:54.375Z,10.89
2023-03-12T00:47:23.702Z,10.88
2023-03-12T00:49:52.913Z,10.83
2023-03-12T00:52:22.278Z,10.73
2023-03-12T00:54:51.521Z,10.70
2023-03-12T00:57:20.594Z,10.72
2023-03-12T00:59:50.086Z,10.72
2023-03-12T01:02:20.024Z,10.71
2023-03-12T01:04:49.372Z,10.77
2023-03-12T01:07:18.984Z,10.87
2023-03-12T01:09:48.193Z,10.97
2023-03-12T01:12:17.666Z,11.06
2023-03-12T01:14:46.863Z,11.17
2023-03-12T01:17:16.268Z,11.20
2023-03-12T01:19:45.724Z,11.24
2023-03-12T01:22:15.389Z,11.26
2023-03-12T01:24:44.704Z,11.32
2023-03-12T01:27:14.156Z,11.35
2023-03-12T01:29:43.354Z,11.26
2023-03-12T01:32:12.993Z,11.14
2023-03-12T01:34:42.058Z,11.06
2023-03-12T01:37:11.568Z,10.97
2023-03-12T01:39:40.955Z,10.89
2023-03-12T01:42:10.516Z,10.81
2023-03-12T01:44:53.096Z,10.74
2023-03-12T01:47:22.723Z,10.64
2023-03-12T01:49:54.237Z,10.58
2023-03-12T01:52:36.990Z,10.48
2023-03-12T01:55:15.809Z,10.33
2023-03-12T01:57:55.707Z,10.26
2023-03-12T02:00:28.122Z,10.22
2023-03-12T02:03:03.398Z,10.19
2023-03-12T02:05:44.325Z,10.11
2023-03-12T02:08:15.463Z,10.08
2023-03-12T02:10:45.782Z,10.14
2023-03-12T02:13:15.140Z,10.18
2023-03-12T02:15:44.223Z,10.18
2023-03-12T02:18:18.035Z,10.23
2023-03-12T02:21:06.051Z,10.29
2023-03-12T02:24:02.050Z,10.30
2023-03-12T02:26:31.800Z,10.19
2023-03-12T02:29:01.723Z,10.09
2023-03-12T02:31:37.900Z,9.99
2023-03-12T02:34:07.172Z,9.85
2023-03-12T02:36:37.506Z,9.76
2023-03-12T02:39:07.065Z,9.75
2023-03-12T02:41:58.277Z,9.86
2023-03-12T02:44:33.868Z,9.83
2023-03-12T02:47:03.619Z,9.73
2023-03-12T02:49:34.490Z,9.69
2023-03-12T02:52:04.968Z,9.69
2023-03-12T02:54:34.439Z,9.73
2023-03-12T02:57:03.483Z,9.75
2023-03-12T02:59:32.398Z,9.87
2023-03-12T03:02:02.570Z,10.03
2023-03-12T03:04:32.661Z,10.12
2023-03-12T03:07:02.379Z,10.10
2023-03-12T03:09:31.537Z,10.07
2023-03-12T03:12:01.427Z,10.11
2023-03-12T03:14:30.451Z,10.08
2023-03-12T03:16:59.969Z,9.96
2023-03-12T03:19:29.056Z,9.86
2023-03-12T03:21:59.149Z,9.81
2023-03-12T03:24:28.515Z,9.83
2023-03-12T03:26:58.125Z,9.83
2023-03-12T03:29:27.291Z,9.80
2023-03-12T03:31:56.625Z,9.84
2023-03-12T03:34:25.891Z,9.92
2023-03-12T03:36:55.010Z,9.93
2023-03-12T03:39:25.821Z,9.85
2023-03-12T03:41:54.995Z,9.78
2023-03-12T03:44:24.526Z,9.81
2023-03-12T03:46:55.838Z,9.84
2023-03-12T03:49:25.375Z,9.85
2023-03-12T03:51:54.563Z,9.83
2023-03-12T03:54:23.952Z,9.81
2023-03-12T03:56:53.251Z,9.81
2023-03-12T03:59:22.663Z,9.78
2023-03-12T04:01:51.845Z,9.69
2023-03-12T04:04:21.597Z,9.56
2023-03-12T04:06:50.758Z,9.48
2023-03-12T04:09:20.091Z,9.49
2023-03-12T04:11:49.485Z,9.46
2023-03-12T04:14:18.962Z,9.46
2023-03-12T04:16:48.377Z,9.52
2023-03-12T04:19:18.415Z,9.55
2023-03-12T04:21:48.245Z,9.55
2023-03-12T04:24:18.231Z,9.45
2023-03-12T04:26:47.796Z,9.32
2023-03-12T04:29:17.155Z,9.25
2023-03-12T04:31:47.014Z,9.22
2023-03-12T04:34:16.296Z,9.13
2023-03-12T04:36:47.204Z,9.07
2023-03-12T04:39:20.742Z,9.06
2023-03-12T04:41:50.054Z,9.03
2023-03-12T04:44:18.921Z,8.96
2023-03-12T04:46:48.151Z,8.87
2023-03-12T04:49:17.496Z,8.77
2023-03-12T04:51:46.689Z,8.70
2023-03-12T04:54:15.774Z,8.72
2023-03-12T04:56:44.756Z,8.73
2023-03-12T04:59:14.855Z,8.71
2023-03-12T05:01:44.233Z,8.73
2023-03-12T05:04:13.488Z,8.80
2023-03-12T05:06:43.100Z,8.81
2023-03-12T05:09:12.299Z,8.79
2023-03-12T05:11:41.330Z,8.73
2023-03-12T05:14:12.464Z,8.74
2023-03-12T05:16:42.004Z,8.74
2023-03-12T05:19:11.720Z,8.69
2023-03-12T05:21:44.902Z,8.68
2023-03-12T05:24:14.047Z,8.73
2023-03-12T05:26:44.115Z,8.87
2023-03-12T05:29:13.562Z,8.92
2023-03-12T05:31:42.981Z,8.87
2023-03-12T05:34:13.945Z,8.86
2023-03-12T05:36:43.951Z,8.92
2023-03-12T05:39:12.988Z,8.98
2023-03-12T05:41:42.216Z,9.01
2023-03-12T05:44:14.234Z,9.06
2023-03-12T05:46:44.580Z,9.19
2023-03-12T05:49:13.637Z,9.30
2023-03-12T05:51:44.111Z,9.32
2023-03-12T05:54:13.723Z,9.22
2023-03-12T05:56:43.012Z,9.16
2023-03-12T05:59:12.498Z,9.14
2023-03-12T06:01:43.076Z,9.22
2023-03-12T06:04:12.519Z,9.26
2023-03-12T06:06:41.704Z,9.35
2023-03-12T06:09:10.897Z,9.52
2023-03-12T06:11:40.137Z,9.66
2023-03-12T06:14:09.528Z,9.74
2023-03-12T06:16:38.694Z,9.74
2023-03-12T06:19:08.612Z,9.81
2023-03-12T06:21:38.554Z,9.90
2023-03-12T06:24:08.408Z,10.04
2023-03-12T06:26:37.930Z,10.11
2023-03-12T06:29:07.073Z,10.16
2023-03-12T06:31:38.737Z,10.23
2023-03-12T06:34:08.652Z,10.33
2023-03-12T06:36:38.082Z,10.45
2023-03-12T06:39:07.492Z,10.52
2023-03-12T06:41:37.139Z,10.61
2023-03-12T06:44:06.756Z,10.75
2023-03-12T06:46:36.202Z,10.88
2023-03-12T06:49:06.018Z,10.93
2023-03-12T06:51:35.094Z,10.97
2023-03-12T06:54:04.108Z,11.06
2023-03-12T06:56:33.519Z,11.19
2023-03-12T06:59:02.463Z,11.33
2023-03-12T07:01:31.461Z,11.46
2023-03-12T07:04:00.765Z,11.61
2023-03-12T07:06:29.894Z,11.76
2023-03-12T07:08:59.061Z,11.88
2023-03-12T07:11:28.288Z,12.01
2023-03-12T07:13:57.908Z,12.28
2023-03-12T07:16:27.751Z,12.66
2023-03-12T07:18:57.662Z,12.99
2023-03-12T07:21:27.435Z,13.28
2023-03-12T07:23:56.637Z,13.48
2023-03-12T07:26:25.869Z,13.76
2023-03-12T07:28:55.147Z,13.89
2023-03-12T07:31:24.170Z,13.85
2023-03-12T07:33:53.492Z,13.70
2023-03-12T07:36:22.743Z,13.58
2023-03-12T07:38:53.598Z,13.71
2023-03-12T07:41:23.363Z,13.88
2023-03-12T07:43:52.832Z,14.01
2023-03-12T07:46:22.725Z,14.13
2023-03-12T07:48:52.259Z,14.17
2023-03-12T07:51:22.249Z,14.15
2023-03-12T07:53:51.268Z,14.02
2023-03-12T07:56:20.740Z,13.89
2023-03-12T07:58:50.039Z,13.75
2023-03-12T08:01:19.514Z,13.80
2023-03-12T08:03:49.213Z,13.93
2023-03-12T08:06:19.564Z,13.92
2023-03-12T08:08:49.569Z,13.77
2023-03-12T08:11:20.310Z,13.85
2023-03-12T08:13:49.953Z,13.82
2023-03-12T08:16:19.415Z,13.91
2023-03-12T08:18:48.628Z,13.93
2023-03-12T08:21:18.225Z,13.96
2023-03-12T08:23:47.483Z,14.03
2023-03-12T08:26:16.842Z,14.42
2023-03-12T08:28:46.112Z,15.39
2023-03-12T08:31:15.699Z,15.59
2023-03-12T08:33:47.402Z,15.52
2023-03-12T08:36:16.878Z,15.49
2023-03-12T08:38:45.943Z,15.80
2023-03-12T08:41:15.766Z,18.00
2023-03-12T08:43:44.999Z,20.20
2023-03-12T08:46:14.301Z,22.05
2023-03-12T08:48:43.644Z,23.40
2023-03-12T08:51:14.856Z,23.38
2023-03-12T08:53:45.749Z,24.88
2023-03-12T08:56:15.338Z,26.30
2023-03-12T08:58:45.824Z,27.26
2023-03-12T09:01:15.622Z,27.02
2023-03-12T09:03:44.959Z,25.78
2023-03-12T09:06:17.567Z,25.36
2023-03-12T09:08:48.785Z,26.03
2023-03-12T09:11:19.528Z,27.26
2023-03-12T09:16:38.318Z,28.95
2023-03-12T09:19:07.522Z,28.66
2023-03-12T09:21:37.272Z,29.15
2023-03-12T09:24:08.163Z,30.21
2023-03-12T09:26:37.229Z,29.67
2023-03-12T09:29:07.180Z,30.35
2023-03-12T09:31:36.972Z,28.68
2023-03-12T09:34:07.392Z,27.53
2023-03-12T09:36:36.731Z,26.63
2023-03-12T09:39:06.708Z,26.34
2023-03-12T09:41:40.510Z,25.92
2023-03-12T09:44:25.023Z,27.24
2023-03-12T09:47:02.965Z,28.58
2023-03-12T09:49:47.428Z,28.89
2023-03-12T09:52:26.486Z,30.51
2023-03-12T09:55:07.153Z,30.44
2023-03-12T09:57:37.131Z,31.97
2023-03-12T10:00:12.851Z,32.07
2023-03-12T10:03:17.103Z,31.79
2023-03-12T10:05:51.909Z,30.93
2023-03-12T10:08:36.866Z,30.00
2023-03-12T10:11:42.708Z,30.16
2023-03-12T10:14:46.155Z,29.09
2023-03-12T10:17:44.037Z,27.98
2023-03-12T10:20:35.461Z,27.32
2023-03-12T10:23:24.195Z,28.04
2023-03-12T10:26:04.290Z,28.88
2023-03-12T10:28:51.103Z,27.70
2023-03-12T10:31:32.754Z,26.86
2023-03-12T10:34:04.086Z,27.88
2023-03-12T10:36:40.956Z,30.00
2023-03-12T10:39:19.698Z,31.79
2023-03-12T10:41:49.722Z,30.57
2023-03-12T10:44:22.815Z,29.80
2023-03-12T10:47:01.027Z,29.67
2023-03-12T10:49:34.773Z,31.77
2023-03-12T10:52:13.490Z,33.14
2023-03-12T10:54:45.788Z,33.96
2023-03-12T10:57:16.892Z,33.81
2023-03-12T10:59:49.239Z,31.84
2023-03-12T11:02:40.839Z,31.33
2023-03-12T11:05:27.070Z,33.03
2023-03-12T11:07:57.665Z,34.15
2023-03-12T11:10:34.781Z,33.51
2023-03-12T11:13:37.762Z,34.59
2023-03-12T11:16:21.338Z,35.64
2023-03-12T11:19:04.662Z,36.57
2023-03-12T11:21:38.785Z,37.04
2023-03-12T11:24:13.612Z,35.65
2023-03-12T11:26:54.661Z,35.00
2023-03-12T11:29:41.467Z,35.22
2023-03-12T11:32:20.324Z,33.84
2023-03-12T11:34:51.542Z,34.90
2023-03-12T11:38:13.223Z,36.18
2023-03-12T11:40:45.284Z,37.05
2023-03-12T11:43:42.706Z,36.25
2023-03-12T11:46:26.714Z,34.54
2023-03-12T11:49:08.717Z,34.16
2023-03-12T11:51:54.395Z,34.07
2023-03-12T11:54:42.094Z,35.27
2023-03-12T11:57:27.441Z,36.27
2023-03-12T12:00:29.049Z,37.00
2023-03-12T12:03:17.745Z,36.98
2023-03-12T12:06:01.066Z,37.19
2023-03-12T12:08:44.411Z,36.43
2023-03-12T12:11:43.177Z,36.82
2023-03-12T12:14:40.778Z,37.07
2023-03-12T12:17:28.689Z,37.21
2023-03-12T12:20:19.950Z,37.88
2023-03-12T12:22:58.438Z,38.01
2023-03-12T12:25:42.785Z,38.29
2023-03-12T12:28:37.821Z,38.35
2023-03-12T12:31:22.249Z,38.46
2023-03-12T12:33:54.524Z,37.81
2023-03-12T12:36:28.176Z,37.98
2023-03-12T12:39:06.715Z,38.42
2023-03-12T12:41:48.544Z,38.30
2023-03-12T12:44:24.696Z,38.65
2023-03-12T12:47:02.089Z,38.94
2023-03-12T12:49:53.137Z,38.85
2023-03-12T12:52:23.494Z,38.63
2023-03-12T12:55:08.331Z,38.54
2023-03-12T12:57:46.517Z,38.64
2023-03-12T13:00:43.872Z,38.39
2023-03-12T13:03:25.615Z,38.09
2023-03-12T13:06:03.301Z,38.15
2023-03-12T13:08:36.801Z,38.53
2023-03-12T13:11:24.214Z,38.79
2023-03-12T13:14:16.585Z,38.55
2023-03-12T13:16:47.848Z,38.40
2023-03-12T13:19:17.542Z,37.84
2023-03-12T13:21:59.730Z,37.60
2023-03-12T13:24:52.658Z,37.16
2023-03-12T13:27:32.622Z,37.14
2023-03-12T13:30:48.926Z,37.55
2023-03-12T13:33:36.909Z,36.60
2023-03-12T13:36:12.294Z,36.83
2023-03-12T13:39:03.521Z,36.98
2023-03-12T13:41:50.790Z,36.96
2023-03-12T13:44:32.399Z,37.04
2023-03-12T13:47:27.929Z,36.90
2023-03-12T13:50:05.061Z,37.04
2023-03-12T13:52:41.699Z,37.11
2023-03-12T13:55:29.302Z,36.88
2023-03-12T13:58:08.264Z,36.75
2023-03-12T14:01:01.256Z,36.76
2023-03-12T14:03:43.482Z,36.49
2023-03-12T14:06:20.776Z,36.63
2023-03-12T14:09:08.890Z,36.25
2023-03-12T14:12:09.402Z,36.04
2023-03-12T14:15:00.222Z,35.49
2023-03-12T14:17:32.466Z,35.22
2023-03-12T14:20:08.089Z,35.13
2023-03-12T14:22:40.626Z,35.08
2023-03-12T14:25:25.283Z,35.15
2023-03-12T14:27:54.660Z,34.99
2023-03-12T14:30:29.677Z,34.85
2023-03-12T14:33:02.556Z,34.50
2023-03-12T14:35:45.562Z,34.44
2023-03-12T14:38:22.585Z,34.49
2023-03-12T14:41:01.315Z,34.33
2023-03-12T14:43:35.812Z,34.14
2023-03-12T14:46:13.861Z,34.01
2023-03-12T14:48:42.964Z,33.79
2023-03-12T14:51:25.602Z,33.65
2023-03-12T14:53:56.234Z,33.54
2023-03-12T14:56:32.847Z,33.23
2023-03-12T14:59:28.459Z,33.01
2023-03-12T15:02:11.917Z,32.85
2023-03-12T15:04:42.866Z,32.67
2023-03-12T15:07:16.320Z,32.35
2023-03-12T15:09:53.423Z,31.86
2023-03-12T15:12:30.756Z,31.26
2023-03-12T15:15:09.166Z,31.28
2023-03-12T15:17:38.736Z,30.78
2023-03-12T15:20:16.859Z,30.67
2023-03-12T15:22:46.474Z,30.47
2023-03-12T15:25:36.533Z,30.17
2023-03-12T15:28:27.313Z,30.05
2023-03-12T15:31:16.030Z,30.13
2023-03-12T15:33:46.022Z,30.11
2023-03-12T15:36:15.179Z,30.09
2023-03-12T15:38:54.134Z,29.98
2023-03-12T15:41:28.702Z,29.69
2023-03-12T15:44:00.262Z,29.39
2023-03-12T15:46:29.620Z,29.25
2023-03-12T15:49:01.409Z,29.21
2023-03-12T15:51:36.931Z,29.28
2023-03-12T15:54:14.495Z,29.20
2023-03-12T15:56:43.942Z,29.00
2023-03-12T15:59:29.164Z,28.89
2023-03-12T16:01:59.090Z,28.66
2023-03-12T16:04:28.394Z,28.55
2023-03-12T16:06:57.570Z,28.38
2023-03-12T16:09:29.085Z,28.09
2023-03-12T16:11:58.404Z,27.88
2023-03-12T16:14:35.288Z,27.59
2023-03-12T16:17:04.720Z,27.38
2023-03-12T16:19:35.082Z,27.10
2023-03-12T16:22:04.732Z,26.82
2023-03-12T16:24:33.908Z,26.38
2023-03-12T16:27:07.896Z,26.19
2023-03-12T16:29:39.822Z,26.01
2023-03-12T16:32:17.374Z,25.85
2023-03-12T16:34:46.802Z,25.59
2023-03-12T16:37:16.279Z,25.46
2023-03-12T16:39:46.872Z,25.33
2023-03-12T16:42:19.127Z,25.13
2023-03-12T16:44:48.636Z,24.92
2023-03-12T16:47:18.817Z,24.72
2023-03-12T16:49:48.966Z,24.49
2023-03-12T16:52:28.922Z,24.26
2023-03-12T16:54:58.534Z,23.98
2023-03-12T16:57:33.366Z,23.77
2023-03-12T17:00:08.312Z,23.47
2023-03-12T17:02:37.803Z,23.04
2023-03-12T17:05:08.775Z,22.59
2023-03-12T17:07:38.401Z,22.21
2023-03-12T17:10:08.198Z,21.76
2023-03-12T17:12:41.022Z,21.36
2023-03-12T17:15:34.444Z,21.09
2023-03-12T17:18:05.313Z,20.74
2023-03-12T17:20:37.985Z,20.43
2023-03-12T17:23:09.818Z,20.06
2023-03-12T17:25:42.453Z,19.79
2023-03-12T17:28:13.231Z,19.55
2023-03-12T17:30:42.906Z,19.37
2023-03-12T17:33:15.325Z,19.20
2023-03-12T17:35:46.706Z,19.00
2023-03-12T17:38:17.809Z,18.86
2023-03-12T17:40:47.564Z,18.73
2023-03-12T17:43:17.908Z,18.60
2023-03-12T17:45:47.697Z,18.40
2023-03-12T17:48:18.114Z,18.21
2023-03-12T17:50:47.724Z,18.03
2023-03-12T17:53:17.848Z,17.89
2023-03-12T17:55:48.881Z,17.73
2023-03-12T17:58:19.181Z,17.61
2023-03-12T18:00:50.184Z,17.54
2023-03-12T18:03:19.489Z,17.45
2023-03-12T18:05:51.822Z,17.41
2023-03-12T18:08:21.372Z,17.42
2023-03-12T18:10:51.481Z,17.37
2023-03-12T18:13:20.847Z,17.34
2023-03-12T18:15:54.912Z,17.35
2023-03-12T18:18:26.051Z,17.32
2023-03-12T18:20:55.464Z,17.25
2023-03-12T18:23:26.010Z,17.19
2023-03-12T18:25:56.555Z,17.10
2023-03-12T18:28:26.273Z,16.99
2023-03-12T18:30:55.832Z,16.91
2023-03-12T18:33:25.714Z,16.82
2023-03-12T18:35:58.912Z,16.68
2023-03-12T18:38:29.711Z,16.57
2023-03-12T18:41:11.460Z,16.46
2023-03-12T18:43:42.443Z,16.32
2023-03-12T18:46:13.712Z,16.20
2023-03-12T18:48:44.384Z,16.13
2023-03-12T18:51:15.725Z,16.08
2023-03-12T18:53:49.247Z,16.03
2023-03-12T18:56:19.024Z,16.04
2023-03-12T18:58:48.246Z,15.95
2023-03-12T19:01:17.662Z,15.75
2023-03-12T19:03:47.198Z,15.61
2023-03-12T19:06:17.895Z,15.51
2023-03-12T19:08:47.731Z,15.36
2023-03-12T19:11:18.048Z,15.24
2023-03-12T19:13:53.074Z,15.13
2023-03-12T19:16:23.104Z,15.04
2023-03-12T19:18:53.570Z,15.02
2023-03-12T19:21:23.948Z,15.02
2023-03-12T19:23:55.023Z,14.96
2023-03-12T19:26:25.567Z,14.83
2023-03-12T19:28:55.294Z,14.74
2023-03-12T19:31:26.951Z,14.71
2023-03-12T19:33:56.925Z,14.67
2023-03-12T19:36:27.171Z,14.73
2023-03-12T19:38:57.682Z,14.64
2023-03-12T19:41:27.144Z,14.49
2023-03-12T19:43:57.380Z,14.35
2023-03-12T19:46:27.831Z,14.23
2023-03-12T19:48:57.999Z,14.13
2023-03-12T19:51:28.620Z,14.08
2023-03-12T19:53:58.753Z,14.07
2023-03-12T19:56:29.838Z,14.04
2023-03-12T19:59:00.909Z,14.02
2023-03-12T20:01:31.298Z,14.04
2023-03-12T20:04:01.318Z,13.98
2023-03-12T20:06:31.891Z,13.84
2023-03-12T20:09:03.337Z,13.71
2023-03-12T20:11:37.013Z,13.65
2023-03-12T20:14:07.134Z,13.61
2023-03-12T20:16:38.127Z,13.58
2023-03-12T20:19:09.525Z,13.48
2023-03-12T20:21:41.193Z,13.39
2023-03-12T20:24:15.469Z,13.34
2023-03-12T20:26:46.305Z,13.21
2023-03-12T20:29:17.160Z,13.17
2023-03-12T20:31:49.506Z,13.11
2023-03-12T20:34:23.338Z,13.05
2023-03-12T20:36:55.548Z,13.00
2023-03-12T20:39:26.473Z,13.03
2023-03-12T20:41:57.708Z,13.04
2023-03-12T20:44:28.786Z,13.10
2023-03-12T20:46:59.786Z,13.10
2023-03-12T20:49:30.919Z,13.02
2023-03-12T20:52:01.443Z,12.97
2023-03-12T20:54:33.805Z,12.89
2023-03-12T20:57:04.643Z,12.77
2023-03-12T20:59:35.227Z,12.67
2023-03-12T21:02:05.807Z,12.61
2023-03-12T21:04:35.705Z,12.55
2023-03-12T21:07:06.652Z,12.47
2023-03-12T21:09:37.655Z,12.40
2023-03-12T21:12:08.093Z,12.38
2023-03-12T21:14:40.927Z,12.32
2023-03-12T21:17:14.252Z,12.27
2023-03-12T21:19:44.939Z,12.25
2023-03-12T21:22:15.398Z,12.23
2023-03-12T21:24:45.559Z,12.22
2023-03-12T21:27:15.296Z,12.20
2023-03-12T21:29:45.409Z,12.28
2023-03-12T21:32:15.414Z,12.33
2023-03-12T21:34:45.187Z,12.29
2023-03-12T21:37:17.297Z,12.23
2023-03-12T21:39:46.611Z,12.15
2023-03-12T21:42:16.359Z,12.13
2023-03-12T21:44:45.723Z,12.13
2023-03-12T21:47:15.200Z,12.08
2023-03-12T21:49:44.085Z,11.98
2023-03-12T21:52:13.854Z,11.90
2023-03-12T21:54:42.855Z,11.86
2023-03-12T21:57:12.214Z,11.81
2023-03-12T21:59:42.131Z,11.80
2023-03-12T22:02:15.878Z,11.81
2023-03-12T22:04:45.948Z,11.81
2023-03-12T22:07:15.881Z,11.81
2023-03-12T22:09:45.651Z,11.85
2023-03-12T22:12:14.600Z,11.86
2023-03-12T22:14:44.442Z,11.83
2023-03-12T22:17:14.199Z,11.82
2023-03-12T22:19:43.812Z,11.84
2023-03-12T22:22:12.894Z,11.80
2023-03-12T22:24:42.106Z,11.72
2023-03-12T22:27:12.649Z,11.55
2023-03-12T22:29:44.369Z,11.35
2023-03-12T22:32:13.621Z,11.27
2023-03-12T22:34:43.251Z,11.22
2023-03-12T22:37:12.961Z,11.24
2023-03-12T22:39:43.867Z,11.25
2023-03-12T22:42:13.108Z,11.22
2023-03-12T22:44:42.416Z,11.17
2023-03-12T22:47:12.155Z,11.14
2023-03-12T22:49:41.328Z,11.19
2023-03-12T22:52:10.174Z,11.14
2023-03-12T22:54:38.842Z,11.08
2023-03-12T22:57:07.835Z,11.03
2023-03-12T22:59:38.788Z,10.95
2023-03-12T23:02:07.475Z,10.96
2023-03-12T23:04:36.556Z,11.00
2023-03-12T23:07:14.388Z,11.00
2023-03-12T23:09:47.541Z,11.03
2023-03-12T23:12:16.404Z,11.05
2023-03-12T23:14:45.386Z,11.01
2023-03-12T23:17:14.569Z,10.96
2023-03-12T23:19:44.409Z,10.93
2023-03-12T23:22:13.351Z,10.91
2023-03-12T23:24:42.634Z,10.86
2023-03-12T23:27:11.702Z,10.79
2023-03-12T23:29:40.604Z,10.72
2023-03-12T23:32:09.685Z,10.78
2023-03-12T23:34:38.877Z,10.80
2023-03-12T23:37:08.699Z,10.70
2023-03-12T23:39:53.426Z,10.61
2023-03-12T23:42:23.331Z,10.49
2023-03-12T23:44:52.078Z,10.53
2023-03-12T23:47:21.222Z,10.56
2023-03-12T23:49:50.631Z,10.60
2023-03-12T23:52:19.638Z,10.45
2023-03-12T23:54:48.907Z,10.37
2023-03-12T23:57:17.797Z,10.32
2023-03-12T23:59:46.826Z,10.29
